sensor_id;sensor_type;location;lat;lon;timestamp;temperature;humidity
8709;DHT22;4391;48.678;9.280;2023-07-30T00:00:31;17.90;99.90
8709;DHT22;4391;48.678;9.280;2023-07-30T00:02:59;17.90;99.90
8709;DHT22;4391;48.678;9.280;2023-07-30T00:05:26;17.90;99.90
8709;DHT22;4391;48.678;9.280;2023-07-30T00:07:52;17.90;99.90
8709;DHT22;4391;48.678;9.280;2023-07-30T00:10:20;17.90;99.90
8709;DHT22;4391;48.678;9.280;2023-07-30T00:12:47;17.90;99.90
8709;DHT22;4391;48.678;9.280;2023-07-30T00:15:14;17.90;99.90
8709;DHT22;4391;48.678;9.280;2023-07-30T00:17:41;18.00;99.90
8709;DHT22;4391;48.678;9.280;2023-07-30T00:20:10;18.00;99.90
8709;DHT22;4391;48.678;9.280;2023-07-30T00:22:36;18.00;99.90
8709;DHT22;4391;48.678;9.280;2023-07-30T00:25:04;18.00;99.90
8709;DHT22;4391;48.678;9.280;2023-07-30T00:27:31;17.90;99.90
8709;DHT22;4391;48.678;9.280;2023-07-30T00:29:58;17.80;99.90
8709;DHT22;4391;48.678;9.280;2023-07-30T00:32:25;17.70;99.90
8709;DHT22;4391;48.678;9.280;2023-07-30T00:34:52;17.80;99.90
8709;DHT22;4391;48.678;9.280;2023-07-30T00:37:20;17.70;99.90
8709;DHT22;4391;48.678;9.280;2023-07-30T00:39:47;17.60;99.90
8709;DHT22;4391;48.678;9.280;2023-07-30T00:42:13;17.60;99.90
8709;DHT22;4391;48.678;9.280;2023-07-30T00:44:40;17.60;99.90
8709;DHT22;4391;48.678;9.280;2023-07-30T00:47:07;17.60;99.90
8709;DHT22;4391;48.678;9.280;2023-07-30T00:49:34;17.60;99.90
8709;DHT22;4391;48.678;9.280;2023-07-30T00:52:01;17.60;99.90
8709;DHT22;4391;48.678;9.280;2023-07-30T00:54:31;17.60;99.90
8709;DHT22;4391;48.678;9.280;2023-07-30T00:56:57;17.50;99.90
8709;DHT22;4391;48.678;9.280;2023-07-30T00:59:24;17.50;99.90
8709;DHT22;4391;48.678;9.280;2023-07-30T01:01:51;17.40;99.90
8709;DHT22;4391;48.678;9.280;2023-07-30T01:04:18;17.40;99.90
8709;DHT22;4391;48.678;9.280;2023-07-30T01:06:46;17.40;99.90
8709;DHT22;4391;48.678;9.280;2023-07-30T01:09:13;17.40;99.90
8709;DHT22;4391;48.678;9.280;2023-07-30T01:11:41;17.40;99.90
8709;DHT22;4391;48.678;9.280;2023-07-30T01:14:09;17.50;99.90
8709;DHT22;4391;48.678;9.280;2023-07-30T01:16:36;17.50;99.90
8709;DHT22;4391;48.678;9.280;2023-07-30T01:19:03;17.50;99.90
8709;DHT22;4391;48.678;9.280;2023-07-30T01:21:33;17.50;99.90
8709;DHT22;4391;48.678;9.280;2023-07-30T01:24:00;17.50;99.90
8709;DHT22;4391;48.678;9.280;2023-07-30T01:26:30;17.60;99.90
8709;DHT22;4391;48.678;9.280;2023-07-30T01:29:01;17.60;99.90
8709;DHT22;4391;48.678;9.280;2023-07-30T01:31:30;17.60;99.90
8709;DHT22;4391;48.678;9.280;2023-07-30T01:33:59;17.60;99.90
8709;DHT22;4391;48.678;9.280;2023-07-30T01:36:29;17.50;99.90
8709;DHT22;4391;48.678;9.280;2023-07-30T01:38:58;17.50;99.90
8709;DHT22;4391;48.678;9.280;2023-07-30T01:41:25;17.50;99.90
8709;DHT22;4391;48.678;9.280;2023-07-30T01:43:53;17.50;99.90
8709;DHT22;4391;48.678;9.280;2023-07-30T01:46:20;17.50;99.90
8709;DHT22;4391;48.678;9.280;2023-07-30T01:48:46;17.50;99.90
8709;DHT22;4391;48.678;9.280;2023-07-30T01:51:13;17.40;99.90
8709;DHT22;4391;48.678;9.280;2023-07-30T01:53:40;17.40;99.90
8709;DHT22;4391;48.678;9.280;2023-07-30T01:56:08;17.30;99.90
8709;DHT22;4391;48.678;9.280;2023-07-30T01:58:35;17.20;99.90
8709;DHT22;4391;48.678;9.280;2023-07-30T02:01:02;17.20;99.90
8709;DHT22;4391;48.678;9.280;2023-07-30T02:03:28;17.20;99.90
8709;DHT22;4391;48.678;9.280;2023-07-30T02:05:55;17.20;99.90
8709;DHT22;4391;48.678;9.280;2023-07-30T02:08:22;17.20;99.90
8709;DHT22;4391;48.678;9.280;2023-07-30T02:10:55;17.10;99.90
8709;DHT22;4391;48.678;9.280;2023-07-30T02:13:24;17.10;99.90
8709;DHT22;4391;48.678;9.280;2023-07-30T02:15:51;17.00;99.90
8709;DHT22;4391;48.678;9.280;2023-07-30T02:18:17;17.00;99.90
8709;DHT22;4391;48.678;9.280;2023-07-30T02:20:44;16.80;99.90
8709;DHT22;4391;48.678;9.280;2023-07-30T02:23:14;16.80;99.90
8709;DHT22;4391;48.678;9.280;2023-07-30T02:25:41;16.80;99.90
8709;DHT22;4391;48.678;9.280;2023-07-30T02:28:08;16.70;99.90
8709;DHT22;4391;48.678;9.280;2023-07-30T02:30:37;16.60;99.90
8709;DHT22;4391;48.678;9.280;2023-07-30T02:33:04;16.50;99.90
8709;DHT22;4391;48.678;9.280;2023-07-30T02:35:31;16.50;99.90
8709;DHT22;4391;48.678;9.280;2023-07-30T02:37:58;16.40;99.90
8709;DHT22;4391;48.678;9.280;2023-07-30T02:40:25;16.40;99.90
8709;DHT22;4391;48.678;9.280;2023-07-30T02:42:51;16.50;99.90
8709;DHT22;4391;48.678;9.280;2023-07-30T02:45:18;16.60;99.90
8709;DHT22;4391;48.678;9.280;2023-07-30T02:47:47;16.60;99.90
8709;DHT22;4391;48.678;9.280;2023-07-30T02:50:13;16.70;99.90
8709;DHT22;4391;48.678;9.280;2023-07-30T02:52:40;16.70;99.90
8709;DHT22;4391;48.678;9.280;2023-07-30T02:55:08;16.70;99.90
8709;DHT22;4391;48.678;9.280;2023-07-30T02:57:35;16.70;99.90
8709;DHT22;4391;48.678;9.280;2023-07-30T03:00:03;16.70;99.90
8709;DHT22;4391;48.678;9.280;2023-07-30T03:02:30;16.70;99.90
8709;DHT22;4391;48.678;9.280;2023-07-30T03:04:58;16.70;99.90
8709;DHT22;4391;48.678;9.280;2023-07-30T03:07:26;16.80;99.90
8709;DHT22;4391;48.678;9.280;2023-07-30T03:09:53;16.80;99.90
8709;DHT22;4391;48.678;9.280;2023-07-30T03:12:19;16.70;99.90
8709;DHT22;4391;48.678;9.280;2023-07-30T03:14:46;16.80;99.90
8709;DHT22;4391;48.678;9.280;2023-07-30T03:17:13;16.70;99.90
8709;DHT22;4391;48.678;9.280;2023-07-30T03:19:40;16.70;99.90
8709;DHT22;4391;48.678;9.280;2023-07-30T03:22:08;16.70;99.90
8709;DHT22;4391;48.678;9.280;2023-07-30T03:24:35;16.70;99.90
8709;DHT22;4391;48.678;9.280;2023-07-30T03:27:02;16.60;99.90
8709;DHT22;4391;48.678;9.280;2023-07-30T03:29:29;16.60;99.90
8709;DHT22;4391;48.678;9.280;2023-07-30T03:31:56;16.60;99.90
8709;DHT22;4391;48.678;9.280;2023-07-30T03:34:23;16.50;99.90
8709;DHT22;4391;48.678;9.280;2023-07-30T03:36:49;16.50;99.90
8709;DHT22;4391;48.678;9.280;2023-07-30T03:39:18;16.50;99.90
8709;DHT22;4391;48.678;9.280;2023-07-30T03:41:44;16.50;99.90
8709;DHT22;4391;48.678;9.280;2023-07-30T03:44:11;16.50;99.90
8709;DHT22;4391;48.678;9.280;2023-07-30T03:46:38;16.60;99.90
8709;DHT22;4391;48.678;9.280;2023-07-30T03:49:05;16.50;99.90
8709;DHT22;4391;48.678;9.280;2023-07-30T03:51:32;16.60;99.90
8709;DHT22;4391;48.678;9.280;2023-07-30T03:53:59;16.60;99.90
8709;DHT22;4391;48.678;9.280;2023-07-30T03:56:27;16.60;99.90
8709;DHT22;4391;48.678;9.280;2023-07-30T03:58:54;16.60;99.90
8709;DHT22;4391;48.678;9.280;2023-07-30T04:01:21;16.60;99.90
8709;DHT22;4391;48.678;9.280;2023-07-30T04:03:48;16.60;99.90
8709;DHT22;4391;48.678;9.280;2023-07-30T04:06:15;16.70;99.90
8709;DHT22;4391;48.678;9.280;2023-07-30T04:08:42;16.70;99.90
8709;DHT22;4391;48.678;9.280;2023-07-30T04:11:09;16.80;99.90
8709;DHT22;4391;48.678;9.280;2023-07-30T04:13:40;16.80;99.90
8709;DHT22;4391;48.678;9.280;2023-07-30T04:16:06;16.90;99.90
8709;DHT22;4391;48.678;9.280;2023-07-30T04:18:33;17.00;99.90
8709;DHT22;4391;48.678;9.280;2023-07-30T04:21:00;17.10;99.90
8709;DHT22;4391;48.678;9.280;2023-07-30T04:23:27;17.10;99.90
8709;DHT22;4391;48.678;9.280;2023-07-30T04:25:54;17.20;99.90
8709;DHT22;4391;48.678;9.280;2023-07-30T04:28:21;17.20;99.90
8709;DHT22;4391;48.678;9.280;2023-07-30T04:30:49;17.20;99.90
8709;DHT22;4391;48.678;9.280;2023-07-30T04:33:16;17.20;99.90
8709;DHT22;4391;48.678;9.280;2023-07-30T04:35:43;17.20;99.90
8709;DHT22;4391;48.678;9.280;2023-07-30T04:38:09;17.20;99.90
8709;DHT22;4391;48.678;9.280;2023-07-30T04:40:36;17.20;99.90
8709;DHT22;4391;48.678;9.280;2023-07-30T04:43:03;17.20;99.90
8709;DHT22;4391;48.678;9.280;2023-07-30T04:45:30;17.20;99.90
8709;DHT22;4391;48.678;9.280;2023-07-30T04:47:58;17.20;99.90
8709;DHT22;4391;48.678;9.280;2023-07-30T04:50:25;17.20;99.90
8709;DHT22;4391;48.678;9.280;2023-07-30T04:52:52;17.20;99.90
8709;DHT22;4391;48.678;9.280;2023-07-30T04:55:19;17.20;99.90
8709;DHT22;4391;48.678;9.280;2023-07-30T04:57:46;17.10;99.90
8709;DHT22;4391;48.678;9.280;2023-07-30T05:00:13;17.20;99.90
8709;DHT22;4391;48.678;9.280;2023-07-30T05:02:39;17.20;99.90
8709;DHT22;4391;48.678;9.280;2023-07-30T05:05:08;17.20;99.90
8709;DHT22;4391;48.678;9.280;2023-07-30T05:07:35;17.20;99.90
8709;DHT22;4391;48.678;9.280;2023-07-30T05:10:02;17.20;99.90
8709;DHT22;4391;48.678;9.280;2023-07-30T05:12:31;17.20;99.90
8709;DHT22;4391;48.678;9.280;2023-07-30T05:14:59;17.20;99.90
8709;DHT22;4391;48.678;9.280;2023-07-30T05:17:26;17.30;99.90
8709;DHT22;4391;48.678;9.280;2023-07-30T05:19:53;17.30;99.90
8709;DHT22;4391;48.678;9.280;2023-07-30T05:22:21;17.40;99.90
8709;DHT22;4391;48.678;9.280;2023-07-30T05:24:48;17.50;99.90
8709;DHT22;4391;48.678;9.280;2023-07-30T05:27:14;17.50;99.90
8709;DHT22;4391;48.678;9.280;2023-07-30T05:29:41;17.50;99.90
8709;DHT22;4391;48.678;9.280;2023-07-30T05:32:09;17.60;99.90
8709;DHT22;4391;48.678;9.280;2023-07-30T05:34:35;17.70;99.90
8709;DHT22;4391;48.678;9.280;2023-07-30T05:37:03;17.80;99.90
8709;DHT22;4391;48.678;9.280;2023-07-30T05:39:31;17.80;99.90
8709;DHT22;4391;48.678;9.280;2023-07-30T05:41:58;17.90;99.90
8709;DHT22;4391;48.678;9.280;2023-07-30T05:44:24;18.00;99.90
8709;DHT22;4391;48.678;9.280;2023-07-30T05:46:51;18.00;99.90
8709;DHT22;4391;48.678;9.280;2023-07-30T05:49:19;17.90;99.90
8709;DHT22;4391;48.678;9.280;2023-07-30T05:51:46;17.90;99.90
8709;DHT22;4391;48.678;9.280;2023-07-30T05:54:12;17.80;99.90
8709;DHT22;4391;48.678;9.280;2023-07-30T05:56:41;17.70;99.90
8709;DHT22;4391;48.678;9.280;2023-07-30T05:59:07;17.70;99.90
8709;DHT22;4391;48.678;9.280;2023-07-30T06:01:34;17.60;99.90
8709;DHT22;4391;48.678;9.280;2023-07-30T06:04:01;17.70;99.90
8709;DHT22;4391;48.678;9.280;2023-07-30T06:06:28;17.70;99.90
8709;DHT22;4391;48.678;9.280;2023-07-30T06:08:55;17.80;99.90
8709;DHT22;4391;48.678;9.280;2023-07-30T06:11:22;17.80;99.90
8709;DHT22;4391;48.678;9.280;2023-07-30T06:13:50;17.90;99.90
8709;DHT22;4391;48.678;9.280;2023-07-30T06:16:18;18.00;99.90
8709;DHT22;4391;48.678;9.280;2023-07-30T06:18:45;18.00;99.90
8709;DHT22;4391;48.678;9.280;2023-07-30T06:21:12;18.10;99.90
8709;DHT22;4391;48.678;9.280;2023-07-30T06:23:39;18.20;99.90
8709;DHT22;4391;48.678;9.280;2023-07-30T06:26:06;18.20;99.90
8709;DHT22;4391;48.678;9.280;2023-07-30T06:28:33;18.20;99.90
8709;DHT22;4391;48.678;9.280;2023-07-30T06:31:01;18.30;99.90
8709;DHT22;4391;48.678;9.280;2023-07-30T06:33:28;18.30;99.90
8709;DHT22;4391;48.678;9.280;2023-07-30T06:35:55;18.40;99.90
8709;DHT22;4391;48.678;9.280;2023-07-30T06:38:22;18.40;99.90
8709;DHT22;4391;48.678;9.280;2023-07-30T06:40:48;18.50;99.90
8709;DHT22;4391;48.678;9.280;2023-07-30T06:43:15;18.60;99.90
8709;DHT22;4391;48.678;9.280;2023-07-30T06:45:42;18.70;99.90
8709;DHT22;4391;48.678;9.280;2023-07-30T06:48:10;18.80;99.90
8709;DHT22;4391;48.678;9.280;2023-07-30T06:50:37;18.90;99.90
8709;DHT22;4391;48.678;9.280;2023-07-30T06:53:04;19.00;99.90
8709;DHT22;4391;48.678;9.280;2023-07-30T06:55:31;19.10;99.90
8709;DHT22;4391;48.678;9.280;2023-07-30T06:57:58;19.20;99.90
8709;DHT22;4391;48.678;9.280;2023-07-30T07:00:24;19.10;99.90
8709;DHT22;4391;48.678;9.280;2023-07-30T07:02:51;19.10;99.90
8709;DHT22;4391;48.678;9.280;2023-07-30T07:05:19;19.10;99.90
8709;DHT22;4391;48.678;9.280;2023-07-30T07:07:46;19.30;99.90
8709;DHT22;4391;48.678;9.280;2023-07-30T07:10:13;19.50;99.90
8709;DHT22;4391;48.678;9.280;2023-07-30T07:12:40;19.80;98.40
8709;DHT22;4391;48.678;9.280;2023-07-30T07:15:07;19.80;74.40
8709;DHT22;4391;48.678;9.280;2023-07-30T07:17:34;19.90;76.60
8709;DHT22;4391;48.678;9.280;2023-07-30T07:20:01;20.00;86.80
8709;DHT22;4391;48.678;9.280;2023-07-30T07:22:31;20.30;92.30
8709;DHT22;4391;48.678;9.280;2023-07-30T07:24:57;20.60;31.60
8709;DHT22;4391;48.678;9.280;2023-07-30T07:27:24;20.70;16.00
8709;DHT22;4391;48.678;9.280;2023-07-30T07:29:51;20.80;1.00
8709;DHT22;4391;48.678;9.280;2023-07-30T07:32:18;20.80;1.00
8709;DHT22;4391;48.678;9.280;2023-07-30T07:34:46;20.50;3.40
8709;DHT22;4391;48.678;9.280;2023-07-30T07:37:13;20.10;58.30
8709;DHT22;4391;48.678;9.280;2023-07-30T07:39:42;19.60;82.10
8709;DHT22;4391;48.678;9.280;2023-07-30T07:42:09;18.90;48.20
8709;DHT22;4391;48.678;9.280;2023-07-30T07:44:36;18.30;99.90
8709;DHT22;4391;48.678;9.280;2023-07-30T07:47:03;17.90;99.90
8709;DHT22;4391;48.678;9.280;2023-07-30T07:49:30;17.80;99.90
8709;DHT22;4391;48.678;9.280;2023-07-30T07:51:56;17.60;99.90
8709;DHT22;4391;48.678;9.280;2023-07-30T07:54:23;17.70;99.90
8709;DHT22;4391;48.678;9.280;2023-07-30T07:56:51;17.70;99.90
8709;DHT22;4391;48.678;9.280;2023-07-30T07:59:18;17.70;99.90
8709;DHT22;4391;48.678;9.280;2023-07-30T08:01:45;17.70;99.90
8709;DHT22;4391;48.678;9.280;2023-07-30T08:04:12;17.80;99.90
8709;DHT22;4391;48.678;9.280;2023-07-30T08:06:39;17.80;99.90
8709;DHT22;4391;48.678;9.280;2023-07-30T08:09:05;17.90;99.90
8709;DHT22;4391;48.678;9.280;2023-07-30T08:11:33;18.10;99.90
8709;DHT22;4391;48.678;9.280;2023-07-30T08:14:01;18.20;99.90
8709;DHT22;4391;48.678;9.280;2023-07-30T08:16:28;18.30;99.90
8709;DHT22;4391;48.678;9.280;2023-07-30T08:18:55;18.50;99.90
8709;DHT22;4391;48.678;9.280;2023-07-30T08:21:21;18.50;99.90
8709;DHT22;4391;48.678;9.280;2023-07-30T08:23:48;18.60;99.90
8709;DHT22;4391;48.678;9.280;2023-07-30T08:26:15;18.70;99.90
8709;DHT22;4391;48.678;9.280;2023-07-30T08:28:42;18.80;99.90
8709;DHT22;4391;48.678;9.280;2023-07-30T08:31:10;18.90;99.90
8709;DHT22;4391;48.678;9.280;2023-07-30T08:33:37;19.20;99.90
8709;DHT22;4391;48.678;9.280;2023-07-30T08:36:04;19.50;99.90
8709;DHT22;4391;48.678;9.280;2023-07-30T08:38:31;19.90;41.80
8709;DHT22;4391;48.678;9.280;2023-07-30T08:40:57;20.20;57.90
8709;DHT22;4391;48.678;9.280;2023-07-30T08:43:24;20.60;1.00
8709;DHT22;4391;48.678;9.280;2023-07-30T08:45:51;20.70;15.70
8709;DHT22;4391;48.678;9.280;2023-07-30T08:48:20;20.80;1.00
8709;DHT22;4391;48.678;9.280;2023-07-30T08:50:48;20.90;1.00
8709;DHT22;4391;48.678;9.280;2023-07-30T08:53:16;20.80;1.00
8709;DHT22;4391;48.678;9.280;2023-07-30T08:55:43;21.00;1.00
8709;DHT22;4391;48.678;9.280;2023-07-30T08:58:11;21.40;1.00
8709;DHT22;4391;48.678;9.280;2023-07-30T09:00:38;21.80;99.90
8709;DHT22;4391;48.678;9.280;2023-07-30T09:03:08;21.70;99.90
8709;DHT22;4391;48.678;9.280;2023-07-30T09:05:38;21.90;99.90
8709;DHT22;4391;48.678;9.280;2023-07-30T09:08:06;22.10;99.90
8709;DHT22;4391;48.678;9.280;2023-07-30T09:10:33;21.90;99.90
8709;DHT22;4391;48.678;9.280;2023-07-30T09:13:02;21.70;1.00
8709;DHT22;4391;48.678;9.280;2023-07-30T09:15:30;21.80;14.80
8709;DHT22;4391;48.678;9.280;2023-07-30T09:17:58;21.90;99.90
8709;DHT22;4391;48.678;9.280;2023-07-30T09:20:24;22.30;94.60
8709;DHT22;4391;48.678;9.280;2023-07-30T09:22:56;22.90;99.90
8709;DHT22;4391;48.678;9.280;2023-07-30T09:25:23;23.40;1.00
8709;DHT22;4391;48.678;9.280;2023-07-30T09:27:50;23.50;99.90
8709;DHT22;4391;48.678;9.280;2023-07-30T09:30:22;23.50;93.50
8709;DHT22;4391;48.678;9.280;2023-07-30T09:32:51;23.20;92.70
8709;DHT22;4391;48.678;9.280;2023-07-30T09:35:19;22.80;99.90
8709;DHT22;4391;48.678;9.280;2023-07-30T09:37:46;22.40;99.90
8709;DHT22;4391;48.678;9.280;2023-07-30T09:40:15;22.40;99.90
8709;DHT22;4391;48.678;9.280;2023-07-30T09:42:46;22.30;99.90
8709;DHT22;4391;48.678;9.280;2023-07-30T09:45:22;22.10;99.90
8709;DHT22;4391;48.678;9.280;2023-07-30T09:47:49;21.60;3.90
8709;DHT22;4391;48.678;9.280;2023-07-30T09:50:16;21.20;99.90
8709;DHT22;4391;48.678;9.280;2023-07-30T09:52:44;20.60;99.90
8709;DHT22;4391;48.678;9.280;2023-07-30T09:55:11;19.90;1.00
8709;DHT22;4391;48.678;9.280;2023-07-30T09:57:39;19.30;8.80
8709;DHT22;4391;48.678;9.280;2023-07-30T10:00:07;18.70;87.10
8709;DHT22;4391;48.678;9.280;2023-07-30T10:02:37;18.40;99.90
8709;DHT22;4391;48.678;9.280;2023-07-30T10:05:08;18.30;99.90
8709;DHT22;4391;48.678;9.280;2023-07-30T10:07:38;18.20;93.00
8709;DHT22;4391;48.678;9.280;2023-07-30T10:10:08;18.10;90.20
8709;DHT22;4391;48.678;9.280;2023-07-30T10:12:36;18.20;99.90
8709;DHT22;4391;48.678;9.280;2023-07-30T10:15:08;18.40;99.90
8709;DHT22;4391;48.678;9.280;2023-07-30T10:17:35;18.80;99.90
8709;DHT22;4391;48.678;9.280;2023-07-30T10:20:26;19.20;51.00
8709;DHT22;4391;48.678;9.280;2023-07-30T10:22:56;19.60;17.90
8709;DHT22;4391;48.678;9.280;2023-07-30T10:25:27;20.20;1.00
8709;DHT22;4391;48.678;9.280;2023-07-30T10:27:54;21.20;99.90
8709;DHT22;4391;48.678;9.280;2023-07-30T10:30:30;21.60;1.00
8709;DHT22;4391;48.678;9.280;2023-07-30T10:33:02;21.50;99.90
8709;DHT22;4391;48.678;9.280;2023-07-30T10:35:37;21.70;3.10
8709;DHT22;4391;48.678;9.280;2023-07-30T10:38:14;22.20;99.90
8709;DHT22;4391;48.678;9.280;2023-07-30T10:40:42;22.50;99.90
8709;DHT22;4391;48.678;9.280;2023-07-30T10:43:15;22.70;99.90
8709;DHT22;4391;48.678;9.280;2023-07-30T10:45:50;22.90;99.90
8709;DHT22;4391;48.678;9.280;2023-07-30T10:48:17;23.60;1.00
8709;DHT22;4391;48.678;9.280;2023-07-30T10:50:44;23.70;1.00
8709;DHT22;4391;48.678;9.280;2023-07-30T10:53:14;23.40;1.00
8709;DHT22;4391;48.678;9.280;2023-07-30T10:55:41;23.30;1.00
8709;DHT22;4391;48.678;9.280;2023-07-30T10:58:08;23.60;1.00
8709;DHT22;4391;48.678;9.280;2023-07-30T11:00:35;24.50;1.00
8709;DHT22;4391;48.678;9.280;2023-07-30T11:03:03;25.60;99.90
8709;DHT22;4391;48.678;9.280;2023-07-30T11:05:30;26.30;99.90
8709;DHT22;4391;48.678;9.280;2023-07-30T11:07:57;26.80;99.90
8709;DHT22;4391;48.678;9.280;2023-07-30T11:10:24;26.50;99.90
8709;DHT22;4391;48.678;9.280;2023-07-30T11:12:51;26.60;99.90
8709;DHT22;4391;48.678;9.280;2023-07-30T11:15:18;26.90;99.90
8709;DHT22;4391;48.678;9.280;2023-07-30T11:17:44;27.00;99.90
8709;DHT22;4391;48.678;9.280;2023-07-30T11:20:23;26.10;99.90
8709;DHT22;4391;48.678;9.280;2023-07-30T11:22:52;24.90;99.90
8709;DHT22;4391;48.678;9.280;2023-07-30T11:25:19;24.50;99.90
8709;DHT22;4391;48.678;9.280;2023-07-30T11:27:46;25.00;99.90
8709;DHT22;4391;48.678;9.280;2023-07-30T11:30:13;25.70;99.90
8709;DHT22;4391;48.678;9.280;2023-07-30T11:32:41;26.70;99.90
8709;DHT22;4391;48.678;9.280;2023-07-30T11:35:10;27.90;99.90
8709;DHT22;4391;48.678;9.280;2023-07-30T11:37:40;28.20;99.90
8709;DHT22;4391;48.678;9.280;2023-07-30T11:40:08;28.60;99.90
8709;DHT22;4391;48.678;9.280;2023-07-30T11:42:36;28.00;99.90
8709;DHT22;4391;48.678;9.280;2023-07-30T11:45:17;28.30;99.90
8709;DHT22;4391;48.678;9.280;2023-07-30T11:50:12;28.40;99.90
8709;DHT22;4391;48.678;9.280;2023-07-30T11:52:52;28.70;99.90
8709;DHT22;4391;48.678;9.280;2023-07-30T11:55:19;28.50;99.90
8709;DHT22;4391;48.678;9.280;2023-07-30T11:57:46;28.50;99.90
8709;DHT22;4391;48.678;9.280;2023-07-30T12:00:14;28.50;99.90
8709;DHT22;4391;48.678;9.280;2023-07-30T12:02:41;28.40;99.90
8709;DHT22;4391;48.678;9.280;2023-07-30T12:05:10;28.40;99.90
8709;DHT22;4391;48.678;9.280;2023-07-30T12:07:40;29.30;99.90
8709;DHT22;4391;48.678;9.280;2023-07-30T12:10:11;29.50;99.90
8709;DHT22;4391;48.678;9.280;2023-07-30T12:12:43;30.10;99.90
8709;DHT22;4391;48.678;9.280;2023-07-30T12:15:11;30.10;99.90
8709;DHT22;4391;48.678;9.280;2023-07-30T12:17:38;29.50;99.90
8709;DHT22;4391;48.678;9.280;2023-07-30T12:20:06;29.80;99.90
8709;DHT22;4391;48.678;9.280;2023-07-30T12:22:33;29.30;99.90
8709;DHT22;4391;48.678;9.280;2023-07-30T12:25:01;28.60;99.90
8709;DHT22;4391;48.678;9.280;2023-07-30T12:27:29;27.70;99.90
8709;DHT22;4391;48.678;9.280;2023-07-30T12:29:56;27.00;99.90
8709;DHT22;4391;48.678;9.280;2023-07-30T12:32:23;27.10;99.90
8709;DHT22;4391;48.678;9.280;2023-07-30T12:34:50;28.50;99.90
8709;DHT22;4391;48.678;9.280;2023-07-30T12:37:17;28.30;99.90
8709;DHT22;4391;48.678;9.280;2023-07-30T12:39:43;28.20;99.90
8709;DHT22;4391;48.678;9.280;2023-07-30T12:42:10;28.00;99.90
8709;DHT22;4391;48.678;9.280;2023-07-30T12:44:38;28.20;99.90
8709;DHT22;4391;48.678;9.280;2023-07-30T12:47:05;28.70;99.90
8709;DHT22;4391;48.678;9.280;2023-07-30T12:49:32;30.20;99.90
8709;DHT22;4391;48.678;9.280;2023-07-30T12:51:59;30.20;99.90
8709;DHT22;4391;48.678;9.280;2023-07-30T12:54:26;29.80;99.90
8709;DHT22;4391;48.678;9.280;2023-07-30T12:56:52;28.70;99.90
8709;DHT22;4391;48.678;9.280;2023-07-30T12:59:19;27.80;99.90
8709;DHT22;4391;48.678;9.280;2023-07-30T13:01:47;29.30;99.90
8709;DHT22;4391;48.678;9.280;2023-07-30T13:04:14;30.20;99.90
8709;DHT22;4391;48.678;9.280;2023-07-30T13:06:42;30.90;99.90
8709;DHT22;4391;48.678;9.280;2023-07-30T13:09:09;31.20;99.90
8709;DHT22;4391;48.678;9.280;2023-07-30T13:11:36;30.20;99.90
8709;DHT22;4391;48.678;9.280;2023-07-30T13:14:03;29.50;99.90
8709;DHT22;4391;48.678;9.280;2023-07-30T13:16:29;29.00;99.90
8709;DHT22;4391;48.678;9.280;2023-07-30T13:18:59;29.10;99.90
8709;DHT22;4391;48.678;9.280;2023-07-30T13:21:26;28.20;99.90
8709;DHT22;4391;48.678;9.280;2023-07-30T13:23:52;28.80;99.90
8709;DHT22;4391;48.678;9.280;2023-07-30T13:26:19;29.40;99.90
8709;DHT22;4391;48.678;9.280;2023-07-30T13:28:46;28.80;99.90
8709;DHT22;4391;48.678;9.280;2023-07-30T13:31:13;29.20;99.90
8709;DHT22;4391;48.678;9.280;2023-07-30T13:33:40;29.70;99.90
8709;DHT22;4391;48.678;9.280;2023-07-30T13:36:08;30.00;99.90
8709;DHT22;4391;48.678;9.280;2023-07-30T13:38:35;30.50;99.90
8709;DHT22;4391;48.678;9.280;2023-07-30T13:41:04;29.90;99.90
8709;DHT22;4391;48.678;9.280;2023-07-30T13:43:31;28.60;99.90
8709;DHT22;4391;48.678;9.280;2023-07-30T13:45:58;27.10;99.90
8709;DHT22;4391;48.678;9.280;2023-07-30T13:48:25;26.10;99.90
8709;DHT22;4391;48.678;9.280;2023-07-30T13:50:52;25.50;99.90
8709;DHT22;4391;48.678;9.280;2023-07-30T13:53:20;25.30;99.90
8709;DHT22;4391;48.678;9.280;2023-07-30T13:55:47;26.50;99.90
8709;DHT22;4391;48.678;9.280;2023-07-30T13:58:13;27.90;99.90
8709;DHT22;4391;48.678;9.280;2023-07-30T14:00:41;29.20;99.90
8709;DHT22;4391;48.678;9.280;2023-07-30T14:03:08;28.70;99.90
8709;DHT22;4391;48.678;9.280;2023-07-30T14:05:36;28.70;99.90
8709;DHT22;4391;48.678;9.280;2023-07-30T14:08:04;28.00;99.90
8709;DHT22;4391;48.678;9.280;2023-07-30T14:10:32;27.90;99.90
8709;DHT22;4391;48.678;9.280;2023-07-30T14:12:59;29.20;99.90
8709;DHT22;4391;48.678;9.280;2023-07-30T14:15:25;28.80;99.90
8709;DHT22;4391;48.678;9.280;2023-07-30T14:17:52;27.40;99.90
8709;DHT22;4391;48.678;9.280;2023-07-30T14:20:20;26.60;99.90
8709;DHT22;4391;48.678;9.280;2023-07-30T14:22:47;26.40;99.90
8709;DHT22;4391;48.678;9.280;2023-07-30T14:25:15;27.00;99.90
8709;DHT22;4391;48.678;9.280;2023-07-30T14:27:43;27.50;99.90
8709;DHT22;4391;48.678;9.280;2023-07-30T14:30:10;29.40;99.90
8709;DHT22;4391;48.678;9.280;2023-07-30T14:32:37;29.70;99.90
8709;DHT22;4391;48.678;9.280;2023-07-30T14:35:04;30.20;99.90
8709;DHT22;4391;48.678;9.280;2023-07-30T14:37:31;30.00;99.90
8709;DHT22;4391;48.678;9.280;2023-07-30T14:39:58;29.00;99.90
8709;DHT22;4391;48.678;9.280;2023-07-30T14:42:25;27.90;99.90
8709;DHT22;4391;48.678;9.280;2023-07-30T14:44:53;27.20;99.90
8709;DHT22;4391;48.678;9.280;2023-07-30T14:47:20;27.70;99.90
8709;DHT22;4391;48.678;9.280;2023-07-30T14:49:48;28.20;99.90
8709;DHT22;4391;48.678;9.280;2023-07-30T14:52:16;27.60;99.90
8709;DHT22;4391;48.678;9.280;2023-07-30T14:54:44;27.90;99.90
8709;DHT22;4391;48.678;9.280;2023-07-30T14:57:11;28.50;99.90
8709;DHT22;4391;48.678;9.280;2023-07-30T14:59:38;28.70;99.90
8709;DHT22;4391;48.678;9.280;2023-07-30T15:02:06;29.40;99.90
8709;DHT22;4391;48.678;9.280;2023-07-30T15:04:33;28.70;99.90
8709;DHT22;4391;48.678;9.280;2023-07-30T15:07:00;27.90;99.90
8709;DHT22;4391;48.678;9.280;2023-07-30T15:09:27;27.00;99.90
8709;DHT22;4391;48.678;9.280;2023-07-30T15:11:59;26.00;99.90
8709;DHT22;4391;48.678;9.280;2023-07-30T15:14:26;25.40;99.90
8709;DHT22;4391;48.678;9.280;2023-07-30T15:16:53;24.80;99.90
8709;DHT22;4391;48.678;9.280;2023-07-30T15:19:24;24.30;99.90
8709;DHT22;4391;48.678;9.280;2023-07-30T15:21:51;23.90;99.90
8709;DHT22;4391;48.678;9.280;2023-07-30T15:24:17;23.80;99.90
8709;DHT22;4391;48.678;9.280;2023-07-30T15:26:44;23.70;99.90
8709;DHT22;4391;48.678;9.280;2023-07-30T15:29:11;23.70;99.90
8709;DHT22;4391;48.678;9.280;2023-07-30T15:31:38;23.30;99.90
8709;DHT22;4391;48.678;9.280;2023-07-30T15:34:05;23.40;99.90
8709;DHT22;4391;48.678;9.280;2023-07-30T15:36:34;23.70;99.90
8709;DHT22;4391;48.678;9.280;2023-07-30T15:39:01;23.90;99.90
8709;DHT22;4391;48.678;9.280;2023-07-30T15:41:28;24.00;99.90
8709;DHT22;4391;48.678;9.280;2023-07-30T15:43:55;23.60;99.90
8709;DHT22;4391;48.678;9.280;2023-07-30T15:46:22;23.70;99.90
8709;DHT22;4391;48.678;9.280;2023-07-30T15:48:49;23.40;99.90
8709;DHT22;4391;48.678;9.280;2023-07-30T15:51:16;23.30;99.90
8709;DHT22;4391;48.678;9.280;2023-07-30T15:53:44;23.20;99.90
8709;DHT22;4391;48.678;9.280;2023-07-30T15:56:11;22.90;99.90
8709;DHT22;4391;48.678;9.280;2023-07-30T15:58:38;23.00;99.90
8709;DHT22;4391;48.678;9.280;2023-07-30T16:01:06;22.90;99.90
8709;DHT22;4391;48.678;9.280;2023-07-30T16:03:35;22.70;99.90
8709;DHT22;4391;48.678;9.280;2023-07-30T16:06:03;22.60;99.90